sensor_id;sensor_type;location;lat;lon;timestamp;pressure;altitude;pressure_sealevel;temperature;humidity
5996;BME280;3026;53.612;7.278;2022-10-31T00:00:15;101805.56;;;14.69;100.00
5996;BME280;3026;53.612;7.278;2022-10-31T00:02:42;101806.94;;;14.65;100.00
5996;BME280;3026;53.612;7.278;2022-10-31T00:05:09;101810.06;;;14.62;100.00
5996;BME280;3026;53.612;7.278;2022-10-31T00:07:36;101803.88;;;14.59;100.00
5996;BME280;3026;53.612;7.278;2022-10-31T00:10:06;101799.75;;;14.55;100.00
5996;BME280;3026;53.612;7.278;2022-10-31T00:12:33;101802.88;;;14.52;100.00
5996;BME280;3026;53.612;7.278;2022-10-31T00:15:00;101808.53;;;14.51;100.00
5996;BME280;3026;53.612;7.278;2022-10-31T00:17:27;101810.59;;;14.49;100.00
5996;BME280;3026;53.612;7.278;2022-10-31T00:19:54;101813.53;;;14.47;100.00
5996;BME280;3026;53.612;7.278;2022-10-31T00:22:20;101809.03;;;14.38;100.00
5996;BME280;3026;53.612;7.278;2022-10-31T00:24:47;101820.03;;;14.38;100.00
5996;BME280;3026;53.612;7.278;2022-10-31T00:27:15;101822.41;;;14.33;100.00
5996;BME280;3026;53.612;7.278;2022-10-31T00:29:42;101827.91;;;14.33;100.00
5996;BME280;3026;53.612;7.278;2022-10-31T00:32:09;101829.97;;;14.31;100.00
5996;BME280;3026;53.612;7.278;2022-10-31T00:34:36;101825.88;;;14.27;100.00
5996;BME280;3026;53.612;7.278;2022-10-31T00:37:03;101827.22;;;14.23;100.00
5996;BME280;3026;53.612;7.278;2022-10-31T00:39:30;101834.78;;;14.21;100.00
5996;BME280;3026;53.612;7.278;2022-10-31T00:41:57;101836.84;;;14.19;100.00
5996;BME280;3026;53.612;7.278;2022-10-31T00:44:25;101834.09;;;14.19;100.00
5996;BME280;3026;53.612;7.278;2022-10-31T00:46:52;101833.41;;;14.17;100.00
5996;BME280;3026;53.612;7.278;2022-10-31T00:49:19;101834.63;;;14.14;100.00
5996;BME280;3026;53.612;7.278;2022-10-31T00:51:46;101832.06;;;14.13;100.00
5996;BME280;3026;53.612;7.278;2022-10-31T00:54:13;101836.16;;;14.09;100.00
5996;BME280;3026;53.612;7.278;2022-10-31T00:56:39;101839.25;;;14.06;100.00
5996;BME280;3026;53.612;7.278;2022-10-31T00:59:07;101836.31;;;13.99;100.00
5996;BME280;3026;53.612;7.278;2022-10-31T01:01:35;101841.78;;;13.99;100.00
5996;BME280;3026;53.612;7.278;2022-10-31T01:04:02;101839.56;;;13.94;100.00
5996;BME280;3026;53.612;7.278;2022-10-31T01:06:29;101844.03;;;13.95;100.00
5996;BME280;3026;53.612;7.278;2022-10-31T01:08:56;101851.75;;;13.92;100.00
5996;BME280;3026;53.612;7.278;2022-10-31T01:11:23;101860.16;;;13.90;100.00
5996;BME280;3026;53.612;7.278;2022-10-31T01:13:51;101862.19;;;13.88;100.00
5996;BME280;3026;53.612;7.278;2022-10-31T01:16:20;101865.94;;;13.87;100.00
5996;BME280;3026;53.612;7.278;2022-10-31T01:18:49;101862.00;;;13.82;100.00
5996;BME280;3026;53.612;7.278;2022-10-31T01:21:19;101859.44;;;13.80;100.00
5996;BME280;3026;53.612;7.278;2022-10-31T01:23:46;101864.25;;;13.78;100.00
5996;BME280;3026;53.612;7.278;2022-10-31T01:26:15;101860.09;;;13.74;100.00
5996;BME280;3026;53.612;7.278;2022-10-31T01:28:47;101856.69;;;13.72;100.00
5996;BME280;3026;53.612;7.278;2022-10-31T01:31:16;101859.09;;;13.67;100.00
5996;BME280;3026;53.612;7.278;2022-10-31T01:33:43;101854.25;;;13.61;100.00
5996;BME280;3026;53.612;7.278;2022-10-31T01:36:14;101857.69;;;13.63;100.00
5996;BME280;3026;53.612;7.278;2022-10-31T01:38:42;101855.28;;;13.60;100.00
5996;BME280;3026;53.612;7.278;2022-10-31T01:41:09;101858.38;;;13.57;100.00
5996;BME280;3026;53.612;7.278;2022-10-31T01:43:48;101864.16;;;13.54;100.00
5996;BME280;3026;53.612;7.278;2022-10-31T01:46:18;101858.84;;;13.52;100.00
5996;BME280;3026;53.612;7.278;2022-10-31T01:48:46;101851.50;;;13.53;100.00
5996;BME280;3026;53.612;7.278;2022-10-31T01:51:17;101859.03;;;13.51;100.00
5996;BME280;3026;53.612;7.278;2022-10-31T01:53:47;101848.59;;;13.46;100.00
5996;BME280;3026;53.612;7.278;2022-10-31T01:56:17;101864.84;;;13.48;100.00
5996;BME280;3026;53.612;7.278;2022-10-31T01:58:45;101850.78;;;13.42;100.00
5996;BME280;3026;53.612;7.278;2022-10-31T02:01:14;101854.53;;;13.41;100.00
5996;BME280;3026;53.612;7.278;2022-10-31T02:03:43;101854.19;;;13.36;100.00
5996;BME280;3026;53.612;7.278;2022-10-31T02:06:17;101860.69;;;13.35;100.00
5996;BME280;3026;53.612;7.278;2022-10-31T02:08:48;101861.91;;;13.33;100.00
5996;BME280;3026;53.612;7.278;2022-10-31T02:11:15;101856.22;;;13.26;100.00
5996;BME280;3026;53.612;7.278;2022-10-31T02:13:42;101868.88;;;13.27;100.00
5996;BME280;3026;53.612;7.278;2022-10-31T02:16:09;101867.16;;;13.26;100.00
5996;BME280;3026;53.612;7.278;2022-10-31T02:18:36;101864.59;;;13.25;100.00
5996;BME280;3026;53.612;7.278;2022-10-31T02:21:09;101867.50;;;13.23;100.00
5996;BME280;3026;53.612;7.278;2022-10-31T02:27:07;101867.25;;;13.17;100.00
5996;BME280;3026;53.612;7.278;2022-10-31T02:32:54;101860.41;;;13.12;100.00
5996;BME280;3026;53.612;7.278;2022-10-31T02:35:34;101857.84;;;13.11;100.00
5996;BME280;3026;53.612;7.278;2022-10-31T02:38:12;101850.66;;;13.10;100.00
5996;BME280;3026;53.612;7.278;2022-10-31T02:40:49;101853.56;;;13.08;100.00
5996;BME280;3026;53.612;7.278;2022-10-31T02:43:20;101856.44;;;13.07;100.00
5996;BME280;3026;53.612;7.278;2022-10-31T02:45:50;101868.25;;;13.07;100.00
5996;BME280;3026;53.612;7.278;2022-10-31T02:48:25;101868.41;;;13.06;100.00
5996;BME280;3026;53.612;7.278;2022-10-31T02:50:56;101870.28;;;13.05;100.00
5996;BME280;3026;53.612;7.278;2022-10-31T02:53:24;101862.25;;;13.04;100.00
5996;BME280;3026;53.612;7.278;2022-10-31T02:55:57;101865.31;;;13.01;100.00
5996;BME280;3026;53.612;7.278;2022-10-31T02:58:28;101871.81;;;13.00;100.00
5996;BME280;3026;53.612;7.278;2022-10-31T03:01:10;101865.78;;;12.96;100.00
5996;BME280;3026;53.612;7.278;2022-10-31T03:03:53;101870.41;;;12.96;100.00
5996;BME280;3026;53.612;7.278;2022-10-31T03:06:30;101874.16;;;12.95;100.00
5996;BME280;3026;53.612;7.278;2022-10-31T03:09:05;101874.50;;;12.92;100.00
5996;BME280;3026;53.612;7.278;2022-10-31T03:11:43;101863.38;;;12.85;100.00
5996;BME280;3026;53.612;7.278;2022-10-31T03:14:17;101864.22;;;12.85;100.00
5996;BME280;3026;53.612;7.278;2022-10-31T03:16:47;101862.47;;;12.84;100.00
5996;BME280;3026;53.612;7.278;2022-10-31T03:19:20;101865.72;;;12.80;100.00
5996;BME280;3026;53.612;7.278;2022-10-31T03:21:53;101863.16;;;12.78;100.00
5996;BME280;3026;53.612;7.278;2022-10-31T03:24:26;101856.97;;;12.76;100.00
5996;BME280;3026;53.612;7.278;2022-10-31T03:26:57;101871.69;;;12.75;100.00
5996;BME280;3026;53.612;7.278;2022-10-31T03:29:27;101857.28;;;12.73;100.00
5996;BME280;3026;53.612;7.278;2022-10-31T03:31:59;101854.88;;;12.70;100.00
5996;BME280;3026;53.612;7.278;2022-10-31T03:34:30;101866.84;;;12.69;100.00
5996;BME280;3026;53.612;7.278;2022-10-31T03:37:00;101866.16;;;12.67;100.00
5996;BME280;3026;53.612;7.278;2022-10-31T03:39:28;101869.06;;;12.66;100.00
5996;BME280;3026;53.612;7.278;2022-10-31T03:41:59;101874.00;;;12.62;100.00
5996;BME280;3026;53.612;7.278;2022-10-31T03:44:29;101874.00;;;12.62;100.00
5996;BME280;3026;53.612;7.278;2022-10-31T03:46:57;101874.31;;;12.59;100.00
5996;BME280;3026;53.612;7.278;2022-10-31T03:49:24;101878.91;;;12.59;100.00
5996;BME280;3026;53.612;7.278;2022-10-31T03:51:58;101867.13;;;12.58;100.00
5996;BME280;3026;53.612;7.278;2022-10-31T03:54:30;101863.69;;;12.56;100.00
5996;BME280;3026;53.612;7.278;2022-10-31T03:57:04;101873.78;;;12.55;100.00
5996;BME280;3026;53.612;7.278;2022-10-31T03:59:36;101869.50;;;12.53;100.00
5996;BME280;3026;53.612;7.278;2022-10-31T04:02:07;101872.06;;;12.54;100.00
5996;BME280;3026;53.612;7.278;2022-10-31T04:04:36;101872.38;;;12.51;100.00
5996;BME280;3026;53.612;7.278;2022-10-31T04:07:06;101868.78;;;12.51;100.00
5996;BME280;3026;53.612;7.278;2022-10-31T04:09:36;101866.34;;;12.48;100.00
5996;BME280;3026;53.612;7.278;2022-10-31T04:12:06;101864.63;;;12.47;100.00
5996;BME280;3026;53.612;7.278;2022-10-31T04:14:38;101871.47;;;12.43;100.00
5996;BME280;3026;53.612;7.278;2022-10-31T04:17:09;101875.06;;;12.43;100.00
5996;BME280;3026;53.612;7.278;2022-10-31T04:19:38;101890.63;;;12.43;100.00
5996;BME280;3026;53.612;7.278;2022-10-31T04:22:06;101888.91;;;12.42;100.00
5996;BME280;3026;53.612;7.278;2022-10-31T04:24:33;101889.91;;;12.41;100.00
5996;BME280;3026;53.612;7.278;2022-10-31T04:27:00;101892.66;;;12.41;100.00
5996;BME280;3026;53.612;7.278;2022-10-31T04:29:27;101890.94;;;12.40;100.00
5996;BME280;3026;53.612;7.278;2022-10-31T04:31:54;101888.66;;;12.35;100.00
5996;BME280;3026;53.612;7.278;2022-10-31T04:34:20;101891.56;;;12.34;100.00
5996;BME280;3026;53.612;7.278;2022-10-31T04:36:47;101891.72;;;12.32;100.00
5996;BME280;3026;53.612;7.278;2022-10-31T04:39:16;101896.66;;;12.29;100.00
5996;BME280;3026;53.612;7.278;2022-10-31T04:41:43;101900.00;;;12.22;100.00
5996;BME280;3026;53.612;7.278;2022-10-31T04:44:09;101887.34;;;12.21;100.00
5996;BME280;3026;53.612;7.278;2022-10-31T04:46:36;101900.34;;;12.19;100.00
5996;BME280;3026;53.612;7.278;2022-10-31T04:49:03;101887.97;;;12.15;100.00
5996;BME280;3026;53.612;7.278;2022-10-31T04:51:30;101891.72;;;12.14;100.00
5996;BME280;3026;53.612;7.278;2022-10-31T04:53:57;101881.81;;;12.13;100.00
5996;BME280;3026;53.612;7.278;2022-10-31T04:56:25;101886.56;;;12.11;100.00
5996;BME280;3026;53.612;7.278;2022-10-31T04:58:52;101881.44;;;12.08;100.00
5996;BME280;3026;53.612;7.278;2022-10-31T05:01:19;101879.72;;;12.07;100.00
5996;BME280;3026;53.612;7.278;2022-10-31T05:03:46;101883.75;;;12.03;100.00
5996;BME280;3026;53.612;7.278;2022-10-31T05:06:13;101887.84;;;11.99;100.00
5996;BME280;3026;53.612;7.278;2022-10-31T05:08:42;101880.50;;;12.00;100.00
5996;BME280;3026;53.612;7.278;2022-10-31T05:11:09;101889.88;;;11.97;100.00
5996;BME280;3026;53.612;7.278;2022-10-31T05:13:37;101886.44;;;11.95;100.00
5996;BME280;3026;53.612;7.278;2022-10-31T05:16:05;101888.47;;;11.93;100.00
5996;BME280;3026;53.612;7.278;2022-10-31T05:18:31;101886.72;;;11.92;100.00
5996;BME280;3026;53.612;7.278;2022-10-31T05:20:58;101887.75;;;11.91;100.00
5996;BME280;3026;53.612;7.278;2022-10-31T05:23:25;101889.09;;;11.87;100.00
5996;BME280;3026;53.612;7.278;2022-10-31T05:25:52;101888.38;;;11.85;100.00
5996;BME280;3026;53.612;7.278;2022-10-31T05:28:19;101886.97;;;11.81;100.00
5996;BME280;3026;53.612;7.278;2022-10-31T05:30:49;101883.66;;;11.77;100.00
5996;BME280;3026;53.612;7.278;2022-10-31T05:33:16;101889.28;;;11.76;100.00
5996;BME280;3026;53.612;7.278;2022-10-31T05:35:43;101890.63;;;11.72;100.00
5996;BME280;3026;53.612;7.278;2022-10-31T05:38:10;101892.66;;;11.69;100.00
5996;BME280;3026;53.612;7.278;2022-10-31T05:40:36;101891.22;;;11.65;100.00
5996;BME280;3026;53.612;7.278;2022-10-31T05:43:04;101898.72;;;11.63;100.00
5996;BME280;3026;53.612;7.278;2022-10-31T05:45:30;101891.84;;;11.59;100.00
5996;BME280;3026;53.612;7.278;2022-10-31T05:48:00;101888.38;;;11.57;100.00
5996;BME280;3026;53.612;7.278;2022-10-31T05:50:29;101895.88;;;11.55;100.00
5996;BME280;3026;53.612;7.278;2022-10-31T05:52:57;101902.50;;;11.53;100.00
5996;BME280;3026;53.612;7.278;2022-10-31T05:55:24;101890.34;;;11.47;100.00
5996;BME280;3026;53.612;7.278;2022-10-31T05:57:52;101889.22;;;11.40;100.00
5996;BME280;3026;53.612;7.278;2022-10-31T06:00:19;101895.06;;;11.45;100.00
5996;BME280;3026;53.612;7.278;2022-10-31T06:02:47;101889.78;;;11.44;100.00
5996;BME280;3026;53.612;7.278;2022-10-31T06:05:15;101893.97;;;11.38;100.00
5996;BME280;3026;53.612;7.278;2022-10-31T06:07:42;101899.44;;;11.38;100.00
5996;BME280;3026;53.612;7.278;2022-10-31T06:10:10;101900.63;;;11.35;100.00
5996;BME280;3026;53.612;7.278;2022-10-31T06:12:36;101906.19;;;11.34;100.00
5996;BME280;3026;53.612;7.278;2022-10-31T06:15:04;101902.06;;;11.30;100.00
5996;BME280;3026;53.612;7.278;2022-10-31T06:17:33;101904.41;;;11.25;100.00
5996;BME280;3026;53.612;7.278;2022-10-31T06:20:00;101906.13;;;11.26;100.00
5996;BME280;3026;53.612;7.278;2022-10-31T06:22:29;101910.16;;;11.22;100.00
5996;BME280;3026;53.612;7.278;2022-10-31T06:24:56;101915.91;;;11.19;100.00
5996;BME280;3026;53.612;7.278;2022-10-31T06:27:23;101914.50;;;11.15;100.00
5996;BME280;3026;53.612;7.278;2022-10-31T06:29:51;101917.38;;;11.13;100.00
5996;BME280;3026;53.612;7.278;2022-10-31T06:32:18;101918.53;;;11.10;100.00
5996;BME280;3026;53.612;7.278;2022-10-31T06:34:45;101907.91;;;11.07;100.00
5996;BME280;3026;53.612;7.278;2022-10-31T06:37:14;101917.13;;;11.06;100.00
5996;BME280;3026;53.612;7.278;2022-10-31T06:39:42;101925.75;;;11.02;100.00
5996;BME280;3026;53.612;7.278;2022-10-31T06:42:09;101933.81;;;11.03;100.00
5996;BME280;3026;53.612;7.278;2022-10-31T06:44:36;101931.38;;;11.00;100.00
5996;BME280;3026;53.612;7.278;2022-10-31T06:47:03;101933.94;;;11.02;100.00
5996;BME280;3026;53.612;7.278;2022-10-31T06:49:31;101928.66;;;11.00;100.00
5996;BME280;3026;53.612;7.278;2022-10-31T06:51:58;101936.09;;;10.98;100.00
5996;BME280;3026;53.612;7.278;2022-10-31T06:54:25;101938.13;;;10.96;100.00
5996;BME280;3026;53.612;7.278;2022-10-31T06:56:53;101938.97;;;10.97;100.00
5996;BME280;3026;53.612;7.278;2022-10-31T06:59:20;101943.56;;;10.96;100.00
5996;BME280;3026;53.612;7.278;2022-10-31T07:01:47;101933.69;;;10.95;100.00
5996;BME280;3026;53.612;7.278;2022-10-31T07:04:14;101928.22;;;10.95;100.00
5996;BME280;3026;53.612;7.278;2022-10-31T07:06:41;101930.09;;;10.95;100.00
5996;BME280;3026;53.612;7.278;2022-10-31T07:09:08;101922.91;;;10.94;100.00
5996;BME280;3026;53.612;7.278;2022-10-31T07:11:35;101920.88;;;10.96;100.00
5996;BME280;3026;53.612;7.278;2022-10-31T07:14:03;101928.22;;;10.95;100.00
5996;BME280;3026;53.612;7.278;2022-10-31T07:16:30;101925.50;;;10.95;100.00
5996;BME280;3026;53.612;7.278;2022-10-31T07:18:57;101934.69;;;10.94;100.00
5996;BME280;3026;53.612;7.278;2022-10-31T07:21:24;101927.19;;;10.96;100.00
5996;BME280;3026;53.612;7.278;2022-10-31T07:23:50;101929.78;;;10.98;100.00
5996;BME280;3026;53.612;7.278;2022-10-31T07:26:17;101936.97;;;10.99;100.00
5996;BME280;3026;53.612;7.278;2022-10-31T07:28:45;101939.84;;;10.97;100.00
5996;BME280;3026;53.612;7.278;2022-10-31T07:31:14;101937.09;;;10.97;100.00
5996;BME280;3026;53.612;7.278;2022-10-31T07:33:41;101940.69;;;10.98;100.00
5996;BME280;3026;53.612;7.278;2022-10-31T07:36:09;101937.81;;;10.99;100.00
5996;BME280;3026;53.612;7.278;2022-10-31T07:38:36;101931.38;;;11.00;100.00
5996;BME280;3026;53.612;7.278;2022-10-31T07:41:02;101941.28;;;11.01;100.00
5996;BME280;3026;53.612;7.278;2022-10-31T07:43:29;101945.44;;;11.05;100.00
5996;BME280;3026;53.612;7.278;2022-10-31T07:45:56;101948.84;;;11.07;100.00
5996;BME280;3026;53.612;7.278;2022-10-31T07:48:24;101949.56;;;11.09;100.00
5996;BME280;3026;53.612;7.278;2022-10-31T07:50:51;101939.38;;;11.12;100.00
5996;BME280;3026;53.612;7.278;2022-10-31T07:53:18;101942.34;;;11.18;100.00
5996;BME280;3026;53.612;7.278;2022-10-31T07:55:45;101933.69;;;11.23;100.00
5996;BME280;3026;53.612;7.278;2022-10-31T07:58:14;101940.59;;;11.27;100.00
5996;BME280;3026;53.612;7.278;2022-10-31T08:00:42;101943.72;;;11.32;100.00
5996;BME280;3026;53.612;7.278;2022-10-31T08:03:11;101948.03;;;11.34;100.00
5996;BME280;3026;53.612;7.278;2022-10-31T08:05:39;101943.13;;;11.38;100.00
5996;BME280;3026;53.612;7.278;2022-10-31T08:08:07;101943.13;;;11.38;100.00
5996;BME280;3026;53.612;7.278;2022-10-31T08:10:35;101945.41;;;11.43;100.00
5996;BME280;3026;53.612;7.278;2022-10-31T08:13:03;101939.63;;;11.46;100.00
5996;BME280;3026;53.612;7.278;2022-10-31T08:15:30;101941.22;;;11.48;100.00
5996;BME280;3026;53.612;7.278;2022-10-31T08:17:57;101945.38;;;11.52;100.00
5996;BME280;3026;53.612;7.278;2022-10-31T08:20:24;101932.41;;;11.54;100.00
5996;BME280;3026;53.612;7.278;2022-10-31T08:22:57;101935.78;;;11.66;100.00
5996;BME280;3026;53.612;7.278;2022-10-31T08:25:25;101946.34;;;11.79;100.00
5996;BME280;3026;53.612;7.278;2022-10-31T08:27:53;101943.75;;;11.87;100.00
5996;BME280;3026;53.612;7.278;2022-10-31T08:30:23;101944.84;;;11.94;100.00
5996;BME280;3026;53.612;7.278;2022-10-31T08:33:00;101940.19;;;12.04;100.00
5996;BME280;3026;53.612;7.278;2022-10-31T08:35:28;101937.50;;;12.12;100.00
5996;BME280;3026;53.612;7.278;2022-10-31T08:37:57;101942.75;;;12.23;100.00
5996;BME280;3026;53.612;7.278;2022-10-31T08:40:25;101935.63;;;12.31;100.00
5996;BME280;3026;53.612;7.278;2022-10-31T08:42:56;101925.16;;;12.44;100.00
5996;BME280;3026;53.612;7.278;2022-10-31T08:45:23;101929.41;;;12.64;100.00
5996;BME280;3026;53.612;7.278;2022-10-31T08:47:50;101926.44;;;12.83;100.00
5996;BME280;3026;53.612;7.278;2022-10-31T08:50:17;101930.22;;;13.08;100.00
5996;BME280;3026;53.612;7.278;2022-10-31T08:52:44;101936.34;;;13.28;100.00
5996;BME280;3026;53.612;7.278;2022-10-31T08:55:13;101925.78;;;13.41;100.00
5996;BME280;3026;53.612;7.278;2022-10-31T08:57:39;101925.13;;;13.48;100.00
5996;BME280;3026;53.612;7.278;2022-10-31T09:00:08;101934.06;;;13.58;100.00
5996;BME280;3026;53.612;7.278;2022-10-31T09:02:35;101940.44;;;13.66;100.00
5996;BME280;3026;53.612;7.278;2022-10-31T09:05:04;101936.50;;;13.77;100.00
5996;BME280;3026;53.612;7.278;2022-10-31T09:07:31;101938.59;;;13.83;100.00
5996;BME280;3026;53.612;7.278;2022-10-31T09:09:58;101941.22;;;13.93;100.00
5996;BME280;3026;53.612;7.278;2022-10-31T09:12:26;101940.84;;;13.96;100.00
5996;BME280;3026;53.612;7.278;2022-10-31T09:14:53;101940.00;;;13.95;100.00
5996;BME280;3026;53.612;7.278;2022-10-31T09:17:20;101939.34;;;14.01;100.00
5996;BME280;3026;53.612;7.278;2022-10-31T09:19:46;101945.19;;;14.15;100.00
5996;BME280;3026;53.612;7.278;2022-10-31T09:22:14;101934.91;;;14.25;100.00
5996;BME280;3026;53.612;7.278;2022-10-31T09:24:40;101929.78;;;14.38;100.00
5996;BME280;3026;53.612;7.278;2022-10-31T09:27:07;101948.31;;;14.44;100.00
5996;BME280;3026;53.612;7.278;2022-10-31T09:29:36;101942.84;;;14.52;100.00
5996;BME280;3026;53.612;7.278;2022-10-31T09:32:03;101934.25;;;14.64;100.00
5996;BME280;3026;53.612;7.278;2022-10-31T09:34:30;101945.22;;;14.80;100.00
5996;BME280;3026;53.612;7.278;2022-10-31T09:36:57;101952.22;;;14.91;100.00
5996;BME280;3026;53.612;7.278;2022-10-31T09:39:23;101945.19;;;14.96;100.00
5996;BME280;3026;53.612;7.278;2022-10-31T09:42:02;101958.91;;;15.04;100.00
5996;BME280;3026;53.612;7.278;2022-10-31T09:44:42;101955.16;;;15.05;100.00
5996;BME280;3026;53.612;7.278;2022-10-31T09:47:17;101950.28;;;15.15;100.00
5996;BME280;3026;53.612;7.278;2022-10-31T09:50:01;101953.03;;;15.24;100.00
5996;BME280;3026;53.612;7.278;2022-10-31T09:52:33;101954.69;;;15.41;100.00
5996;BME280;3026;53.612;7.278;2022-10-31T09:55:05;101951.91;;;15.49;100.00
5996;BME280;3026;53.612;7.278;2022-10-31T09:57:34;101954.97;;;15.62;100.00
5996;BME280;3026;53.612;7.278;2022-10-31T10:00:06;101954.44;;;15.67;100.00
5996;BME280;3026;53.612;7.278;2022-10-31T10:02:37;101961.16;;;15.64;100.00
5996;BME280;3026;53.612;7.278;2022-10-31T10:05:10;101962.50;;;15.68;100.00
5996;BME280;3026;53.612;7.278;2022-10-31T10:07:44;101943.28;;;15.60;100.00
5996;BME280;3026;53.612;7.278;2022-10-31T10:10:18;101959.09;;;15.66;100.00
5996;BME280;3026;53.612;7.278;2022-10-31T10:13:05;101953.84;;;15.80;100.00
5996;BME280;3026;53.612;7.278;2022-10-31T10:15:52;101963.78;;;15.89;100.00
5996;BME280;3026;53.612;7.278;2022-10-31T10:18:30;101961.59;;;16.07;100.00
5996;BME280;3026;53.612;7.278;2022-10-31T10:21:09;101962.47;;;16.30;100.00
5996;BME280;3026;53.612;7.278;2022-10-31T10:23:53;101970.69;;;16.39;100.00
5996;BME280;3026;53.612;7.278;2022-10-31T10:26:27;101963.09;;;16.41;100.00
5996;BME280;3026;53.612;7.278;2022-10-31T10:29:00;101972.00;;;16.43;100.00
5996;BME280;3026;53.612;7.278;2022-10-31T10:31:34;101965.31;;;16.45;100.00
5996;BME280;3026;53.612;7.278;2022-10-31T10:34:07;101964.03;;;16.56;100.00
5996;BME280;3026;53.612;7.278;2022-10-31T10:36:41;101957.72;;;16.70;100.00
5996;BME280;3026;53.612;7.278;2022-10-31T10:39:14;101962.13;;;16.79;100.00
5996;BME280;3026;53.612;7.278;2022-10-31T10:41:47;101964.19;;;16.77;100.00
5996;BME280;3026;53.612;7.278;2022-10-31T10:44:27;101957.56;;;16.86;100.00
5996;BME280;3026;53.612;7.278;2022-10-31T10:47:13;101952.31;;;16.77;100.00
5996;BME280;3026;53.612;7.278;2022-10-31T10:49:58;101948.25;;;16.87;100.00
5996;BME280;3026;53.612;7.278;2022-10-31T10:52:35;101949.22;;;16.95;100.00
5996;BME280;3026;53.612;7.278;2022-10-31T10:55:16;101948.00;;;17.12;100.00
5996;BME280;3026;53.612;7.278;2022-10-31T10:57:55;101947.91;;;17.20;100.00
5996;BME280;3026;53.612;7.278;2022-10-31T11:00:25;101949.72;;;17.42;100.00
5996;BME280;3026;53.612;7.278;2022-10-31T11:02:54;101956.00;;;17.51;100.00
5996;BME280;3026;53.612;7.278;2022-10-31T11:05:30;101952.66;;;17.56;100.00
5996;BME280;3026;53.612;7.278;2022-10-31T11:07:59;101949.25;;;17.54;100.00
5996;BME280;3026;53.612;7.278;2022-10-31T11:10:26;101946.84;;;17.36;100.00
5996;BME280;3026;53.612;7.278;2022-10-31T11:13:20;101940.13;;;17.38;100.00
5996;BME280;3026;53.612;7.278;2022-10-31T11:15:57;101937.25;;;17.46;100.00
5996;BME280;3026;53.612;7.278;2022-10-31T11:18:29;101933.44;;;17.47;100.00
5996;BME280;3026;53.612;7.278;2022-10-31T11:20:58;101936.97;;;17.41;100.00
5996;BME280;3026;53.612;7.278;2022-10-31T11:23:27;101935.53;;;17.45;100.00
5996;BME280;3026;53.612;7.278;2022-10-31T11:25:56;101924.16;;;17.48;100.00
5996;BME280;3026;53.612;7.278;2022-10-31T11:28:23;101910.25;;;17.57;100.00
5996;BME280;3026;53.612;7.278;2022-10-31T11:30:52;101915.38;;;17.74;100.00
5996;BME280;3026;53.612;7.278;2022-10-31T11:33:24;101906.81;;;17.84;100.00
5996;BME280;3026;53.612;7.278;2022-10-31T11:35:54;101913.22;;;17.91;100.00
5996;BME280;3026;53.612;7.278;2022-10-31T11:38:23;101917.84;;;17.84;100.00
5996;BME280;3026;53.612;7.278;2022-10-31T11:40:55;101909.72;;;17.83;100.00
5996;BME280;3026;53.612;7.278;2022-10-31T11:43:24;101893.88;;;17.70;100.00
5996;BME280;3026;53.612;7.278;2022-10-31T11:45:51;101902.53;;;17.67;100.00
5996;BME280;3026;53.612;7.278;2022-10-31T11:48:20;101902.63;;;17.59;100.00
5996;BME280;3026;53.612;7.278;2022-10-31T11:50:52;101903.97;;;17.63;100.00
5996;BME280;3026;53.612;7.278;2022-10-31T11:53:26;101907.47;;;17.86;100.00
5996;BME280;3026;53.612;7.278;2022-10-31T11:56:06;101907.81;;;17.98;100.00
5996;BME280;3026;53.612;7.278;2022-10-31T11:58:37;101904.97;;;18.13;100.00
5996;BME280;3026;53.612;7.278;2022-10-31T12:01:03;101894.75;;;18.06;100.00
5996;BME280;3026;53.612;7.278;2022-10-31T12:03:42;101894.84;;;17.98;100.00
5996;BME280;3026;53.612;7.278;2022-10-31T12:06:14;101887.75;;;17.89;100.00
5996;BME280;3026;53.612;7.278;2022-10-31T12:08:45;101887.66;;;17.83;100.00
5996;BME280;3026;53.612;7.278;2022-10-31T12:11:24;101880.38;;;17.75;100.00
5996;BME280;3026;53.612;7.278;2022-10-31T12:14:05;101875.25;;;17.72;100.00
5996;BME280;3026;53.612;7.278;2022-10-31T12:16:41;101872.88;;;17.69;100.00
5996;BME280;3026;53.612;7.278;2022-10-31T12:19:17;101869.53;;;17.59;100.00
5996;BME280;3026;53.612;7.278;2022-10-31T12:22:01;101863.19;;;17.43;100.00
5996;BME280;3026;53.612;7.278;2022-10-31T12:24:39;101865.00;;;17.36;100.00
5996;BME280;3026;53.612;7.278;2022-10-31T12:27:21;101858.56;;;17.29;100.00
5996;BME280;3026;53.612;7.278;2022-10-31T12:30:02;101855.16;;;17.27;100.00
5996;BME280;3026;53.612;7.278;2022-10-31T12:32:43;101849.66;;;17.27;100.00
5996;BME280;3026;53.612;7.278;2022-10-31T12:35:26;101837.47;;;17.21;100.00
5996;BME280;3026;53.612;7.278;2022-10-31T12:41:04;101813.34;;;17.09;100.00
5996;BME280;3026;53.612;7.278;2022-10-31T12:43:41;101812.88;;;17.05;100.00
5996;BME280;3026;53.612;7.278;2022-10-31T12:46:17;101816.88;;;17.03;100.00
5996;BME280;3026;53.612;7.278;2022-10-31T12:49:05;101804.91;;;16.96;100.00
5996;BME280;3026;53.612;7.278;2022-10-31T12:51:40;101802.56;;;16.92;100.00
5996;BME280;3026;53.612;7.278;2022-10-31T12:54:25;101796.66;;;16.96;100.00
5996;BME280;3026;53.612;7.278;2022-10-31T12:57:03;101786.03;;;16.92;100.00
5996;BME280;3026;53.612;7.278;2022-10-31T12:59:35;101761.59;;;16.89;100.00
5996;BME280;3026;53.612;7.278;2022-10-31T13:02:10;101769.09;;;16.96;100.00
5996;BME280;3026;53.612;7.278;2022-10-31T13:04:44;101769.94;;;16.96;100.00
5996;BME280;3026;53.612;7.278;2022-10-31T13:07:15;101763.59;;;16.96;100.00
5996;BME280;3026;53.612;7.278;2022-10-31T13:09:50;101763.13;;;16.92;100.00
5996;BME280;3026;53.612;7.278;2022-10-31T13:12:22;101778.69;;;17.00;100.00
5996;BME280;3026;53.612;7.278;2022-10-31T13:14:53;101776.56;;;17.02;100.00
5996;BME280;3026;53.612;7.278;2022-10-31T13:17:25;101774.88;;;17.01;100.00
5996;BME280;3026;53.612;7.278;2022-10-31T13:19:58;101770.81;;;16.97;100.00
5996;BME280;3026;53.612;7.278;2022-10-31T13:22:31;101767.38;;;16.95;100.00
5996;BME280;3026;53.612;7.278;2022-10-31T13:25:04;101758.94;;;16.96;100.00